createdAt,value
2023-03-27T00:01:44.530Z,99.90
2023-03-27T00:04:09.417Z,99.90
2023-03-27T00:06:35.756Z,99.90
2023-03-27T00:09:00.427Z,99.90
2023-03-27T00:11:26.245Z,99.90
2023-03-27T00:13:54.643Z,99.90
2023-03-27T00:16:21.935Z,99.90
2023-03-27T00:18:46.959Z,99.90
2023-03-27T00:21:14.141Z,99.90
2023-03-27T00:23:38.755Z,99.90
2023-03-27T00:26:03.331Z,99.90
2023-03-27T00:28:30.361Z,99.90
2023-03-27T00:30:58.588Z,99.90
2023-03-27T00:33:24.210Z,99.90
2023-03-27T00:35:50.333Z,99.90
2023-03-27T00:38:16.498Z,99.90
2023-03-27T00:40:41.454Z,99.90
2023-03-27T00:43:20.946Z,99.90
2023-03-27T00:45:47.289Z,99.90
2023-03-27T00:48:13.585Z,99.90
2023-03-27T00:50:41.598Z,99.90
2023-03-27T00:53:11.440Z,99.90
2023-03-27T00:55:39.532Z,99.90
2023-03-27T00:58:10.071Z,99.90
2023-03-27T01:00:36.209Z,99.90
2023-03-27T01:03:02.619Z,99.90
2023-03-27T01:05:29.219Z,99.90
2023-03-27T01:08:00.672Z,99.90
2023-03-27T01:10:37.204Z,99.90
2023-03-27T01:13:11.165Z,99.90
2023-03-27T01:15:41.164Z,99.90
2023-03-27T01:18:16.565Z,99.90
2023-03-27T01:21:13.910Z,99.90
2023-03-27T01:24:05.343Z,99.90
2023-03-27T01:26:58.332Z,99.90
2023-03-27T01:29:39.848Z,99.90
2023-03-27T01:32:29.435Z,99.90
2023-03-27T01:35:22.061Z,99.90
2023-03-27T01:38:32.090Z,99.90
2023-03-27T01:41:00.152Z,99.90
2023-03-27T01:43:31.870Z,99.90
2023-03-27T01:46:01.104Z,99.90
2023-03-27T01:48:33.184Z,99.90
2023-03-27T01:51:03.202Z,99.90
2023-03-27T01:53:29.975Z,99.90
2023-03-27T01:55:59.544Z,99.90
2023-03-27T01:58:28.321Z,99.90
2023-03-27T02:00:54.822Z,99.90
2023-03-27T02:03:23.983Z,99.90
2023-03-27T02:05:53.484Z,99.90
2023-03-27T02:08:22.473Z,99.90
2023-03-27T02:10:57.023Z,99.90
2023-03-27T02:13:30.667Z,99.90
2023-03-27T02:15:58.507Z,99.90
2023-03-27T02:18:30.436Z,99.90
2023-03-27T02:20:56.364Z,99.90
2023-03-27T02:23:23.187Z,99.90
2023-03-27T02:25:48.350Z,99.90
2023-03-27T02:28:40.983Z,99.90
2023-03-27T02:31:33.194Z,99.90
2023-03-27T02:34:23.457Z,99.90
2023-03-27T02:36:55.623Z,99.90
2023-03-27T02:39:38.437Z,99.90
2023-03-27T02:42:09.655Z,99.90
2023-03-27T02:44:46.457Z,99.90
2023-03-27T02:47:19.751Z,99.90
2023-03-27T02:49:48.423Z,99.90
2023-03-27T02:52:16.534Z,99.90
2023-03-27T02:54:47.487Z,99.90
2023-03-27T02:57:17.106Z,99.90
2023-03-27T03:00:22.603Z,99.90
2023-03-27T03:02:55.877Z,99.90
2023-03-27T03:05:23.621Z,99.90
2023-03-27T03:07:49.041Z,99.90
2023-03-27T03:10:15.172Z,99.90
2023-03-27T03:12:40.063Z,99.90
2023-03-27T03:15:04.965Z,99.90
2023-03-27T03:17:30.062Z,99.90
2023-03-27T03:19:56.556Z,99.90
2023-03-27T03:22:23.457Z,99.90
2023-03-27T03:24:51.266Z,99.90
2023-03-27T03:27:21.224Z,99.90
2023-03-27T03:30:16.655Z,99.90
2023-03-27T03:32:48.724Z,99.90
2023-03-27T03:35:15.126Z,99.90
2023-03-27T03:37:39.832Z,99.90
2023-03-27T03:40:12.129Z,99.90
2023-03-27T03:42:46.836Z,99.90
2023-03-27T03:45:12.642Z,99.90
2023-03-27T03:47:37.440Z,99.90
2023-03-27T03:50:04.295Z,99.90
2023-03-27T03:52:31.804Z,99.90
2023-03-27T03:54:56.583Z,99.90
2023-03-27T03:57:21.717Z,99.90
2023-03-27T04:00:01.174Z,99.90
2023-03-27T04:02:52.415Z,99.90
2023-03-27T04:05:17.492Z,99.90
2023-03-27T04:07:45.814Z,99.90
2023-03-27T04:10:31.453Z,99.90
2023-03-27T04:12:59.807Z,99.90
2023-03-27T04:15:30.892Z,99.90
2023-03-27T04:18:15.358Z,99.90
2023-03-27T04:20:41.301Z,99.90
2023-03-27T04:23:10.903Z,99.90
2023-03-27T04:25:38.299Z,99.90
2023-03-27T04:28:03.692Z,99.90
2023-03-27T04:30:37.098Z,99.90
2023-03-27T04:33:18.857Z,99.90
2023-03-27T04:36:05.387Z,99.90
2023-03-27T04:38:53.394Z,99.90
2023-03-27T04:41:18.866Z,99.90
2023-03-27T04:43:43.887Z,99.90
2023-03-27T04:46:09.113Z,99.90
2023-03-27T04:48:35.219Z,99.90
2023-03-27T04:51:09.643Z,99.90
2023-03-27T04:53:36.495Z,99.90
2023-03-27T04:56:02.578Z,99.90
2023-03-27T04:58:30.514Z,99.90
2023-03-27T05:00:58.226Z,99.90
2023-03-27T05:03:26.167Z,99.90
2023-03-27T05:06:06.358Z,99.90
2023-03-27T05:08:34.745Z,99.90
2023-03-27T05:11:01.971Z,99.90
2023-03-27T05:13:35.840Z,99.90
2023-03-27T05:16:02.188Z,99.90
2023-03-27T05:18:38.586Z,99.90
2023-03-27T05:21:07.556Z,99.90
2023-03-27T05:23:33.020Z,99.30
2023-03-27T05:26:01.001Z,99.40
2023-03-27T05:28:43.482Z,99.90
2023-03-27T05:31:13.012Z,99.90
2023-03-27T05:33:53.613Z,99.90
2023-03-27T05:36:19.233Z,99.90
2023-03-27T05:38:44.872Z,99.90
2023-03-27T05:41:12.908Z,99.90
2023-03-27T05:43:45.905Z,99.90
2023-03-27T05:46:20.464Z,99.90
2023-03-27T05:49:00.785Z,99.90
2023-03-27T05:51:27.826Z,99.90
2023-03-27T05:53:52.770Z,99.90
2023-03-27T05:56:20.634Z,99.90
2023-03-27T05:58:56.478Z,99.90
2023-03-27T06:01:23.707Z,99.90
2023-03-27T06:03:56.165Z,99.90
2023-03-27T06:06:41.830Z,99.90
2023-03-27T06:09:07.880Z,99.90
2023-03-27T06:11:34.253Z,99.90
2023-03-27T06:14:00.248Z,99.90
2023-03-27T06:16:40.348Z,99.90
2023-03-27T06:19:37.341Z,99.90
2023-03-27T06:22:02.456Z,99.90
2023-03-27T06:24:27.843Z,99.90
2023-03-27T06:26:53.151Z,99.90
2023-03-27T06:29:20.266Z,99.90
2023-03-27T06:31:48.102Z,99.90
2023-03-27T06:34:27.641Z,99.90
2023-03-27T06:37:02.904Z,99.90
2023-03-27T06:39:33.496Z,99.90
2023-03-27T06:41:58.293Z,99.90
2023-03-27T06:44:30.584Z,99.90
2023-03-27T06:47:12.942Z,99.90
2023-03-27T06:50:01.062Z,99.90
2023-03-27T06:52:27.888Z,99.90
2023-03-27T06:55:03.637Z,99.90
2023-03-27T06:57:29.264Z,99.90
2023-03-27T06:59:58.846Z,99.90
2023-03-27T07:02:42.697Z,99.70
2023-03-27T07:05:27.046Z,99.90
2023-03-27T07:07:52.412Z,99.70
2023-03-27T07:10:18.157Z,99.40
2023-03-27T07:12:46.871Z,98.70
2023-03-27T07:15:15.541Z,98.50
2023-03-27T07:17:48.585Z,97.60
2023-03-27T07:20:16.615Z,97.10
2023-03-27T07:22:43.845Z,97.40
2023-03-27T07:25:19.562Z,97.50
2023-03-27T07:27:44.492Z,97.70
2023-03-27T07:30:12.285Z,97.70
2023-03-27T07:32:40.153Z,97.90
2023-03-27T07:35:06.619Z,98.10
2023-03-27T07:37:40.852Z,97.70
2023-03-27T07:40:41.011Z,98.00
2023-03-27T07:43:29.067Z,97.90
2023-03-27T07:45:54.801Z,98.20
2023-03-27T07:48:21.600Z,98.00
2023-03-27T07:50:46.469Z,98.10
2023-03-27T07:53:32.699Z,98.10
2023-03-27T07:56:02.946Z,97.60
2023-03-27T07:58:29.629Z,97.40
2023-03-27T08:00:55.021Z,97.30
2023-03-27T08:03:26.179Z,97.40
2023-03-27T08:05:57.788Z,97.40
2023-03-27T08:08:24.444Z,97.90
2023-03-27T08:10:57.208Z,98.00
2023-03-27T08:13:24.574Z,98.10
2023-03-27T08:15:49.123Z,98.20
2023-03-27T08:18:20.013Z,98.00
2023-03-27T08:20:47.904Z,98.10
2023-03-27T08:23:12.566Z,98.10
2023-03-27T08:26:07.527Z,97.80
2023-03-27T08:28:40.401Z,97.80
2023-03-27T08:31:11.521Z,97.60
2023-03-27T08:33:36.618Z,97.60
2023-03-27T08:36:04.524Z,97.70
2023-03-27T08:38:33.287Z,97.40
2023-03-27T08:41:31.105Z,97.20
2023-03-27T08:44:12.145Z,97.20
2023-03-27T08:46:43.274Z,96.90
2023-03-27T08:49:17.393Z,96.60
2023-03-27T08:52:07.292Z,96.60
2023-03-27T08:54:36.693Z,96.10
2023-03-27T08:57:03.979Z,96.20
2023-03-27T08:59:31.547Z,95.60
2023-03-27T09:02:07.894Z,95.10
2023-03-27T09:04:42.004Z,95.30
2023-03-27T09:07:12.891Z,95.20
2023-03-27T09:10:00.168Z,95.10
2023-03-27T09:12:48.488Z,95.20
2023-03-27T09:15:17.815Z,94.90
2023-03-27T09:17:51.640Z,94.80
2023-03-27T09:20:20.923Z,94.90
2023-03-27T09:22:57.098Z,94.90
2023-03-27T09:25:39.979Z,94.80
2023-03-27T09:28:23.679Z,94.70
2023-03-27T09:30:55.635Z,94.60
2023-03-27T09:33:28.775Z,94.10
2023-03-27T09:35:54.032Z,94.20
2023-03-27T09:38:29.429Z,94.40
2023-03-27T09:40:58.590Z,94.20
2023-03-27T09:43:44.700Z,94.10
2023-03-27T09:46:13.298Z,94.10
2023-03-27T09:48:43.843Z,93.80
2023-03-27T09:51:40.526Z,93.60
2023-03-27T09:54:14.534Z,93.40
2023-03-27T09:56:42.810Z,93.40
2023-03-27T09:59:19.898Z,93.40
2023-03-27T10:01:48.717Z,93.20
2023-03-27T10:04:17.970Z,93.30
2023-03-27T10:06:48.533Z,93.20
2023-03-27T10:09:35.148Z,93.00
2023-03-27T10:12:12.269Z,92.90
2023-03-27T10:14:40.480Z,92.80
2023-03-27T10:17:22.657Z,92.70
2023-03-27T10:19:55.284Z,93.10
2023-03-27T10:22:30.369Z,93.10
2023-03-27T10:25:00.884Z,92.90
2023-03-27T10:27:50.660Z,92.70
2023-03-27T10:30:35.500Z,92.20
2023-03-27T10:33:15.025Z,92.10
2023-03-27T10:35:46.630Z,92.00
2023-03-27T10:38:19.670Z,92.00
2023-03-27T10:40:52.586Z,91.80
2023-03-27T10:43:33.708Z,91.80
2023-03-27T10:46:05.935Z,91.60
2023-03-27T10:48:44.261Z,91.80
2023-03-27T10:51:43.008Z,92.20
2023-03-27T10:54:19.096Z,92.30
2023-03-27T10:56:58.597Z,92.20
2023-03-27T10:59:41.152Z,91.90
2023-03-27T11:02:18.408Z,92.00
2023-03-27T11:04:52.523Z,92.20
2023-03-27T11:07:23.462Z,92.00
2023-03-27T11:10:00.907Z,92.00
2023-03-27T11:12:35.578Z,91.70
2023-03-27T11:15:07.623Z,91.70
2023-03-27T11:17:38.268Z,91.60
2023-03-27T11:20:26.329Z,91.10
2023-03-27T11:23:16.872Z,90.80
2023-03-27T11:26:06.777Z,90.30
2023-03-27T11:28:42.969Z,90.20
2023-03-27T11:31:14.655Z,90.10
2023-03-27T11:33:48.006Z,90.00
2023-03-27T11:36:26.241Z,89.90
2023-03-27T11:39:14.092Z,89.90
2023-03-27T11:41:43.937Z,89.30
2023-03-27T11:44:11.969Z,88.40
2023-03-27T11:47:19.752Z,87.90
2023-03-27T11:50:02.599Z,87.90
2023-03-27T11:52:46.929Z,88.90
2023-03-27T11:55:26.304Z,90.00
2023-03-27T11:58:04.700Z,89.80
2023-03-27T12:00:47.994Z,90.00
2023-03-27T12:03:46.538Z,90.00
2023-03-27T12:06:25.361Z,89.80
2023-03-27T12:09:19.618Z,88.90
2023-03-27T12:12:24.563Z,89.40
2023-03-27T12:15:00.066Z,88.00
2023-03-27T12:17:51.449Z,88.80
2023-03-27T12:20:54.030Z,88.80
2023-03-27T12:23:44.384Z,89.10
2023-03-27T12:26:51.380Z,87.80
2023-03-27T12:29:59.007Z,87.60
2023-03-27T12:32:44.990Z,87.00
2023-03-27T12:35:13.664Z,86.40
2023-03-27T12:37:49.112Z,87.30
2023-03-27T12:40:29.716Z,88.00
2023-03-27T12:43:24.530Z,88.00
2023-03-27T12:46:17.219Z,88.10
2023-03-27T12:48:49.613Z,87.20
2023-03-27T12:51:19.939Z,87.40
2023-03-27T12:53:56.068Z,87.80
2023-03-27T12:56:33.150Z,87.80
2023-03-27T12:58:58.434Z,88.00
2023-03-27T13:01:52.191Z,88.30
2023-03-27T13:04:40.155Z,88.30
2023-03-27T13:07:12.289Z,87.70
2023-03-27T13:10:21.984Z,87.30
2023-03-27T13:13:04.659Z,88.00
2023-03-27T13:15:59.173Z,87.80
2023-03-27T13:18:58.977Z,87.10
2023-03-27T13:21:37.800Z,87.50
2023-03-27T13:24:28.753Z,87.80
2023-03-27T13:27:13.274Z,88.00
2023-03-27T13:29:38.250Z,88.10
2023-03-27T13:32:35.101Z,88.10
2023-03-27T13:35:22.410Z,86.60
2023-03-27T13:37:59.551Z,85.60
2023-03-27T13:40:38.974Z,88.60
2023-03-27T13:43:15.939Z,90.90
2023-03-27T13:45:47.246Z,92.20
2023-03-27T13:49:11.943Z,93.50
2023-03-27T13:52:40.545Z,94.90
2023-03-27T13:55:43.509Z,97.00
2023-03-27T13:58:50.881Z,98.60
2023-03-27T14:01:30.615Z,99.60
2023-03-27T14:04:29.819Z,99.90
2023-03-27T14:07:38.325Z,99.90
2023-03-27T14:10:28.159Z,99.90
2023-03-27T14:13:18.636Z,99.90
2023-03-27T14:16:19.030Z,99.90
2023-03-27T14:19:15.915Z,99.90
2023-03-27T14:21:53.935Z,99.90
2023-03-27T14:24:30.644Z,99.90
2023-03-27T14:27:13.831Z,99.90
2023-03-27T14:29:40.346Z,99.90
2023-03-27T14:32:06.760Z,99.90
2023-03-27T14:34:47.356Z,99.90
2023-03-27T14:37:32.531Z,99.90
2023-03-27T14:40:18.920Z,99.90
2023-03-27T14:42:49.565Z,99.90
2023-03-27T14:45:24.353Z,99.90
2023-03-27T14:47:54.863Z,99.90
2023-03-27T14:50:20.703Z,99.90
2023-03-27T14:52:46.569Z,99.90
2023-03-27T14:55:30.335Z,99.90
2023-03-27T14:58:18.749Z,99.90
2023-03-27T15:00:50.447Z,99.90
2023-03-27T15:03:20.916Z,99.90
2023-03-27T15:05:58.918Z,99.90
2023-03-27T15:08:32.380Z,99.90
2023-03-27T15:11:12.485Z,99.90
2023-03-27T15:13:48.185Z,99.90
2023-03-27T15:16:26.841Z,99.90
2023-03-27T15:19:04.981Z,99.90
2023-03-27T15:21:39.207Z,99.90
2023-03-27T15:24:10.538Z,99.90
2023-03-27T15:26:37.417Z,99.90
2023-03-27T15:29:08.284Z,99.90
2023-03-27T15:31:36.572Z,99.90
2023-03-27T15:34:06.358Z,99.90
2023-03-27T15:36:34.748Z,99.90
2023-03-27T15:39:02.702Z,99.90
2023-03-27T15:41:44.815Z,99.90
2023-03-27T15:44:15.814Z,99.90
2023-03-27T15:46:54.134Z,99.90
2023-03-27T15:49:31.590Z,99.90
2023-03-27T15:51:57.087Z,99.90
2023-03-27T15:54:35.506Z,99.90
2023-03-27T15:57:10.751Z,99.90
2023-03-27T15:59:52.413Z,99.90
2023-03-27T16:02:20.092Z,99.90
2023-03-27T16:04:51.233Z,99.90
2023-03-27T16:07:20.948Z,99.90
2023-03-27T16:09:56.114Z,99.90
2023-03-27T16:12:25.853Z,99.90
2023-03-27T16:14:54.828Z,99.90
2023-03-27T16:17:25.242Z,99.90
2023-03-27T16:19:55.589Z,99.90
2023-03-27T16:22:30.684Z,99.90
2023-03-27T16:24:56.113Z,99.90
2023-03-27T16:27:23.864Z,99.90
2023-03-27T16:29:48.678Z,99.90
2023-03-27T16:32:14.187Z,99.90
2023-03-27T16:34:41.915Z,99.90
2023-03-27T16:37:06.668Z,99.90
2023-03-27T16:39:31.413Z,99.90
2023-03-27T16:41:56.551Z,99.90
2023-03-27T16:44:21.229Z,99.90
2023-03-27T16:46:46.508Z,99.90
2023-03-27T16:49:13.749Z,99.90
2023-03-27T16:51:39.661Z,99.90
2023-03-27T16:54:04.323Z,99.90
2023-03-27T16:56:29.065Z,99.90
2023-03-27T16:58:53.929Z,99.90
2023-03-27T17:01:18.628Z,99.90
2023-03-27T17:03:43.536Z,99.90
2023-03-27T17:06:09.885Z,99.90
2023-03-27T17:08:37.131Z,99.90
2023-03-27T17:11:04.113Z,99.90
2023-03-27T17:13:28.804Z,99.90
2023-03-27T17:15:53.719Z,99.90
2023-03-27T17:18:18.634Z,99.90
2023-03-27T17:20:43.396Z,99.90
2023-03-27T17:23:08.027Z,99.90
2023-03-27T17:25:34.094Z,99.90
2023-03-27T17:27:58.882Z,99.90
2023-03-27T17:30:36.815Z,99.90
2023-03-27T17:33:05.184Z,99.90
2023-03-27T17:35:30.767Z,99.90
2023-03-27T17:37:55.878Z,99.90
2023-03-27T17:40:21.110Z,99.90
2023-03-27T17:42:47.470Z,99.90
2023-03-27T17:45:16.980Z,99.90
2023-03-27T17:47:41.808Z,99.90
2023-03-27T17:50:09.330Z,99.90
2023-03-27T17:52:37.461Z,99.90
2023-03-27T17:55:05.222Z,99.90
2023-03-27T17:57:30.925Z,99.90
2023-03-27T17:59:57.321Z,99.90
2023-03-27T18:02:22.968Z,99.90
2023-03-27T18:04:52.249Z,99.90
2023-03-27T18:07:17.018Z,99.90
2023-03-27T18:09:49.562Z,99.90
2023-03-27T18:12:18.256Z,99.90
2023-03-27T18:14:44.120Z,99.90
2023-03-27T18:17:12.442Z,99.90
2023-03-27T18:19:39.147Z,99.90
2023-03-27T18:22:04.086Z,99.90
2023-03-27T18:24:31.391Z,99.90
2023-03-27T18:26:56.365Z,99.90
2023-03-27T18:29:22.560Z,99.90
2023-03-27T18:31:47.477Z,99.90
2023-03-27T18:34:15.621Z,99.90
2023-03-27T18:36:40.618Z,99.90
2023-03-27T18:39:08.718Z,99.90
2023-03-27T18:41:33.655Z,99.90
2023-03-27T18:43:58.289Z,99.90
2023-03-27T18:46:23.620Z,99.90
2023-03-27T18:48:50.033Z,99.90
2023-03-27T18:51:17.759Z,99.90
2023-03-27T18:53:42.496Z,99.90
2023-03-27T18:56:08.641Z,99.90
2023-03-27T18:58:33.331Z,99.90
2023-03-27T19:00:58.169Z,99.90
2023-03-27T19:03:24.797Z,99.90
2023-03-27T19:05:49.816Z,99.90
2023-03-27T19:08:16.631Z,99.90
2023-03-27T19:10:41.486Z,99.90
2023-03-27T19:13:16.105Z,99.90
2023-03-27T19:15:59.250Z,99.90
2023-03-27T19:18:44.343Z,99.90
2023-03-27T19:21:23.583Z,99.90
2023-03-27T19:24:01.782Z,99.90
2023-03-27T19:26:36.322Z,99.90
2023-03-27T19:29:01.131Z,99.90
2023-03-27T19:31:27.406Z,99.90
2023-03-27T19:33:51.975Z,99.90
2023-03-27T19:36:17.731Z,99.90
2023-03-27T19:38:44.624Z,99.90
2023-03-27T19:41:11.742Z,99.90
2023-03-27T19:43:36.553Z,99.90
2023-03-27T19:46:15.056Z,99.90
2023-03-27T19:48:41.076Z,99.90
2023-03-27T19:51:12.532Z,99.90
2023-03-27T19:53:46.916Z,99.90
2023-03-27T19:56:13.504Z,99.90
2023-03-27T19:58:38.171Z,99.90
2023-03-27T20:01:04.697Z,99.90
2023-03-27T20:03:29.549Z,99.90
2023-03-27T20:05:56.063Z,99.90
2023-03-27T20:08:33.961Z,99.90
2023-03-27T20:10:59.280Z,99.90
2023-03-27T20:13:25.398Z,99.90
2023-03-27T20:15:51.456Z,99.90
2023-03-27T20:18:16.602Z,99.90
2023-03-27T20:20:41.796Z,99.90
2023-03-27T20:23:06.768Z,99.90
2023-03-27T20:25:33.887Z,99.90
2023-03-27T20:28:02.136Z,99.90
2023-03-27T20:30:28.965Z,99.90
2023-03-27T20:32:56.870Z,99.90
2023-03-27T20:35:24.811Z,99.90
2023-03-27T20:37:49.722Z,99.90
2023-03-27T20:40:18.883Z,99.90
2023-03-27T20:42:47.165Z,99.90
2023-03-27T20:45:16.459Z,99.90
2023-03-27T20:47:43.120Z,99.90
2023-03-27T20:50:08.735Z,99.90
2023-03-27T20:52:34.013Z,99.90
2023-03-27T20:54:59.216Z,99.90
2023-03-27T20:57:24.260Z,99.90
2023-03-27T20:59:49.592Z,99.90
2023-03-27T21:02:18.562Z,99.90
2023-03-27T21:04:44.662Z,99.90
2023-03-27T21:07:09.736Z,99.90
2023-03-27T21:09:34.267Z,99.90
2023-03-27T21:11:58.887Z,99.90
2023-03-27T21:14:26.444Z,99.90
2023-03-27T21:16:51.580Z,99.90
2023-03-27T21:19:18.361Z,99.90
2023-03-27T21:21:44.712Z,99.90
2023-03-27T21:24:09.414Z,99.90
2023-03-27T21:26:34.757Z,99.90
2023-03-27T21:28:59.356Z,99.90
2023-03-27T21:31:23.927Z,99.90
2023-03-27T21:33:48.652Z,99.90
2023-03-27T21:36:13.687Z,99.90
2023-03-27T21:38:39.734Z,99.90
2023-03-27T21:41:05.054Z,99.90
2023-03-27T21:43:30.003Z,99.90
2023-03-27T21:45:54.724Z,99.90
2023-03-27T21:48:20.106Z,99.90
2023-03-27T21:50:45.031Z,99.90
2023-03-27T21:53:10.320Z,99.90
2023-03-27T21:55:37.548Z,99.90
2023-03-27T21:58:02.097Z,99.90
2023-03-27T22:00:26.861Z,99.90
2023-03-27T22:02:51.570Z,99.90
2023-03-27T22:05:16.396Z,99.90
2023-03-27T22:07:41.201Z,99.90
2023-03-27T22:10:06.544Z,99.90
2023-03-27T22:12:32.485Z,99.90
2023-03-27T22:14:56.949Z,99.90
2023-03-27T22:17:21.773Z,99.90
2023-03-27T22:19:46.257Z,99.90
2023-03-27T22:22:10.834Z,99.90
2023-03-27T22:24:35.704Z,99.90
2023-03-27T22:27:00.107Z,99.90
2023-03-27T22:29:26.031Z,99.90
2023-03-27T22:31:50.625Z,99.90
2023-03-27T22:34:15.125Z,99.90
2023-03-27T22:36:39.548Z,99.90
2023-03-27T22:39:04.357Z,99.90
2023-03-27T22:41:29.234Z,99.90
2023-03-27T22:43:53.897Z,99.90
2023-03-27T22:46:25.993Z,99.90
2023-03-27T22:48:56.586Z,99.90
2023-03-27T22:51:21.293Z,99.90
2023-03-27T22:53:45.817Z,99.90
2023-03-27T22:56:11.009Z,99.90
2023-03-27T22:58:37.003Z,99.90
2023-03-27T23:01:01.947Z,99.90
2023-03-27T23:03:29.662Z,99.90
2023-03-27T23:05:54.856Z,99.90
2023-03-27T23:08:21.084Z,99.90
2023-03-27T23:10:46.099Z,99.90
2023-03-27T23:13:10.914Z,99.90
2023-03-27T23:15:35.522Z,99.90
2023-03-27T23:17:59.967Z,99.90
2023-03-27T23:20:26.763Z,99.90
2023-03-27T23:22:51.326Z,99.90
2023-03-27T23:25:16.945Z,99.90
2023-03-27T23:27:41.452Z,99.90
2023-03-27T23:30:07.062Z,99.90
2023-03-27T23:32:33.585Z,99.90
2023-03-27T23:34:58.292Z,99.90
2023-03-27T23:37:24.121Z,99.90
2023-03-27T23:39:49.168Z,99.90
2023-03-27T23:42:13.624Z,99.90
2023-03-27T23:44:38.150Z,99.90
2023-03-27T23:47:02.566Z,99.90
2023-03-27T23:49:26.999Z,99.90
2023-03-27T23:51:51.369Z,99.90
2023-03-27T23:54:17.215Z,99.90
2023-03-27T23:56:41.708Z,99.90
2023-03-27T23:59:06.410Z,99.90
